createdAt,value
2019-03-06T00:01:05.420Z,1005.7
2019-03-06T00:02:14.876Z,1005.77
2019-03-06T00:03:24.846Z,1005.66
2019-03-06T00:04:34.609Z,1005.77
2019-03-06T00:05:44.608Z,1005.68
2019-03-06T00:06:54.579Z,1005.68
2019-03-06T00:08:04.298Z,1005.76
2019-03-06T00:09:14.278Z,1005.78
2019-03-06T00:10:24.230Z,1005.8
2019-03-06T00:11:33.949Z,1005.78
2019-03-06T00:12:43.663Z,1005.78
2019-03-06T00:13:53.367Z,1005.85
2019-03-06T00:15:02.872Z,1005.84
2019-03-06T00:16:12.833Z,1005.8
2019-03-06T00:17:22.793Z,1005.73
2019-03-06T00:18:32.516Z,1005.72
2019-03-06T00:19:42.472Z,1005.69
2019-03-06T00:20:52.225Z,1005.78
2019-03-06T00:22:02.190Z,1005.76
2019-03-06T00:23:11.908Z,1005.72
2019-03-06T00:24:21.631Z,1005.7
2019-03-06T00:25:31.333Z,1005.76
2019-03-06T00:26:41.307Z,1005.8
2019-03-06T00:27:51.497Z,1005.67
2019-03-06T00:29:01.885Z,1005.64
2019-03-06T00:30:12.073Z,1005.68
2019-03-06T00:31:22.755Z,1005.61
2019-03-06T00:32:32.746Z,1005.67
2019-03-06T00:33:42.891Z,1005.69
2019-03-06T00:34:52.595Z,1005.76
2019-03-06T00:36:02.573Z,1005.7
2019-03-06T00:37:12.548Z,1005.73
2019-03-06T00:38:22.507Z,1005.82
2019-03-06T00:39:32.475Z,1005.83
2019-03-06T00:40:42.439Z,1005.83
2019-03-06T00:41:52.401Z,1005.81
2019-03-06T00:43:02.123Z,1005.77
2019-03-06T00:44:11.829Z,1005.8
2019-03-06T00:45:21.791Z,1005.81
2019-03-06T00:46:31.757Z,1005.81
2019-03-06T00:47:41.711Z,1005.91
2019-03-06T00:48:51.674Z,1005.93
2019-03-06T00:50:01.396Z,1005.91
2019-03-06T00:51:11.358Z,1005.95
2019-03-06T00:52:21.087Z,1005.92
2019-03-06T00:53:31.043Z,1006.01
2019-03-06T00:54:40.235Z,1006.01
2019-03-06T00:55:49.948Z,1005.89
2019-03-06T00:56:59.904Z,1005.93
2019-03-06T00:58:09.616Z,1005.94
2019-03-06T00:59:19.081Z,1005.95
2019-03-06T01:00:28.939Z,1005.95
2019-03-06T01:01:38.651Z,1005.95
2019-03-06T01:02:48.655Z,1005.96
2019-03-06T01:03:59.169Z,1005.94
2019-03-06T01:05:09.469Z,1006.01
2019-03-06T01:06:20.108Z,1005.99
2019-03-06T01:07:30.083Z,1005.96
2019-03-06T01:08:40.166Z,1005.89
2019-03-06T01:09:50.111Z,1005.95
2019-03-06T01:11:00.068Z,1005.96
2019-03-06T01:12:09.769Z,1005.95
2019-03-06T01:13:19.733Z,1005.97
2019-03-06T01:14:29.695Z,1005.98
2019-03-06T01:15:39.415Z,1006.02
2019-03-06T01:16:49.387Z,1006.01
2019-03-06T01:17:59.347Z,1005.97
2019-03-06T01:19:09.059Z,1005.95
2019-03-06T01:20:19.014Z,1006.03
2019-03-06T01:21:28.979Z,1006.03
2019-03-06T01:22:38.444Z,1006.02
2019-03-06T01:23:48.413Z,1006.06
2019-03-06T01:24:58.387Z,1006.06
2019-03-06T01:26:08.357Z,1006.07
2019-03-06T01:27:18.314Z,1006.06
2019-03-06T01:28:28.011Z,1006.11
2019-03-06T01:29:37.729Z,1006.1
2019-03-06T01:30:47.687Z,1006.07
2019-03-06T01:31:57.661Z,1006.08
2019-03-06T01:33:07.612Z,1006.07
2019-03-06T01:34:17.321Z,1006.05
2019-03-06T01:35:27.084Z,1006.07
2019-03-06T01:36:37.345Z,1006.08
2019-03-06T01:37:47.629Z,1006.15
2019-03-06T01:38:57.671Z,1006.07
2019-03-06T01:40:08.041Z,1006.08
2019-03-06T01:41:18.300Z,1006.02
2019-03-06T01:42:28.116Z,1006.04
2019-03-06T01:43:37.835Z,1005.97
2019-03-06T01:44:47.810Z,1005.98
2019-03-06T01:45:57.777Z,1005.95
2019-03-06T01:47:07.478Z,1006
2019-03-06T01:48:17.233Z,1006.02
2019-03-06T01:49:27.182Z,1006
2019-03-06T01:50:36.898Z,1005.97
2019-03-06T01:51:46.623Z,1005.99
2019-03-06T01:52:56.595Z,1006.03
2019-03-06T01:54:06.566Z,1006.08
2019-03-06T01:55:16.276Z,1006.11
2019-03-06T01:56:25.972Z,1006.1
2019-03-06T01:57:35.685Z,1006.1
2019-03-06T01:58:45.144Z,1005.99
2019-03-06T01:59:55.114Z,1006.05
2019-03-06T02:01:04.831Z,1006.12
2019-03-06T02:02:14.540Z,1006.15
2019-03-06T02:03:24.509Z,1006.18
2019-03-06T02:04:34.471Z,1006.2
2019-03-06T02:05:44.191Z,1006.14
2019-03-06T02:06:54.159Z,1006.18
2019-03-06T02:08:04.136Z,1006.14
2019-03-06T02:09:14.101Z,1006.2
2019-03-06T02:10:23.807Z,1006.16
2019-03-06T02:11:34.102Z,1006.23
2019-03-06T02:12:44.539Z,1006.21
2019-03-06T02:13:54.988Z,1006.16
2019-03-06T02:15:05.125Z,1006.16
2019-03-06T02:16:14.987Z,1006.14
2019-03-06T02:17:24.947Z,1006.09
2019-03-06T02:18:34.646Z,1006.12
2019-03-06T02:19:44.629Z,1006.15
2019-03-06T02:20:54.336Z,1006.2
2019-03-06T02:22:04.300Z,1006.1
2019-03-06T02:23:14.238Z,1006.15
2019-03-06T02:24:23.944Z,1006.15
2019-03-06T02:25:33.911Z,1006.15
2019-03-06T02:26:43.606Z,1006.13
2019-03-06T02:27:53.554Z,1006.17
2019-03-06T02:29:03.517Z,1006.18
2019-03-06T02:30:13.490Z,1006.12
2019-03-06T02:31:23.469Z,1006.14
2019-03-06T02:32:33.206Z,1006.14
2019-03-06T02:33:42.926Z,1006.15
2019-03-06T02:34:52.883Z,1006.18
2019-03-06T02:36:02.684Z,1006.16
2019-03-06T02:37:12.453Z,1006.25
2019-03-06T02:38:22.453Z,1006.25
2019-03-06T02:39:32.427Z,1006.26
2019-03-06T02:40:42.196Z,1006.3
2019-03-06T02:41:51.930Z,1006.22
2019-03-06T02:43:01.917Z,1006.22
2019-03-06T02:44:11.890Z,1006.19
2019-03-06T02:45:21.887Z,1006.19
2019-03-06T02:46:31.369Z,1006.16
2019-03-06T02:47:41.081Z,1006.19
2019-03-06T02:48:51.055Z,1006.14
2019-03-06T02:50:01.207Z,1006.21
2019-03-06T02:51:10.930Z,1006.25
2019-03-06T02:52:21.362Z,1006.3
2019-03-06T02:53:31.609Z,1006.21
2019-03-06T02:54:41.759Z,1006.16
2019-03-06T02:55:51.981Z,1006.17
2019-03-06T02:57:02.225Z,1006.21
2019-03-06T02:58:12.419Z,1006.19
2019-03-06T02:59:22.394Z,1006.19
2019-03-06T03:00:32.366Z,1006.23
2019-03-06T03:01:42.386Z,1006.23
2019-03-06T03:02:52.373Z,1006.26
2019-03-06T03:04:02.366Z,1006.22
2019-03-06T03:05:12.377Z,1006.23
2019-03-06T03:06:21.863Z,1006.23
2019-03-06T03:07:31.582Z,1006.29
2019-03-06T03:08:41.552Z,1006.24
2019-03-06T03:09:51.014Z,1006.27
2019-03-06T03:11:01.020Z,1006.26
2019-03-06T03:12:11.114Z,1006.32
2019-03-06T03:13:21.127Z,1006.3
2019-03-06T03:14:31.103Z,1006.33
2019-03-06T03:15:40.837Z,1006.32
2019-03-06T03:16:50.873Z,1006.31
2019-03-06T03:18:00.873Z,1006.33
2019-03-06T03:19:10.846Z,1006.33
2019-03-06T03:20:20.814Z,1006.32
2019-03-06T03:21:30.548Z,1006.33
2019-03-06T03:22:40.578Z,1006.32
2019-03-06T03:23:50.317Z,1006.32
2019-03-06T03:25:00.313Z,1006.39
2019-03-06T03:26:10.464Z,1006.27
2019-03-06T03:27:20.438Z,1006.31
2019-03-06T03:28:30.644Z,1006.3
2019-03-06T03:29:41.174Z,1006.26
2019-03-06T03:30:51.582Z,1006.29
2019-03-06T03:32:01.950Z,1006.28
2019-03-06T03:33:12.659Z,1006.26
2019-03-06T03:34:22.674Z,1006.26
2019-03-06T03:35:32.916Z,1006.24
2019-03-06T03:36:42.922Z,1006.33
2019-03-06T03:37:52.675Z,1006.38
2019-03-06T03:39:02.404Z,1006.42
2019-03-06T03:40:12.387Z,1006.44
2019-03-06T03:41:22.369Z,1006.44
2019-03-06T03:42:32.085Z,1006.43
2019-03-06T03:43:41.806Z,1006.47
2019-03-06T03:44:51.511Z,1006.5
2019-03-06T03:46:01.501Z,1006.4
2019-03-06T03:47:11.473Z,1006.44
2019-03-06T03:48:21.449Z,1006.47
2019-03-06T03:49:31.159Z,1006.47
2019-03-06T03:50:40.895Z,1006.49
2019-03-06T03:51:50.894Z,1006.5
2019-03-06T03:53:00.867Z,1006.48
2019-03-06T03:54:10.834Z,1006.53
2019-03-06T03:55:20.849Z,1006.5
2019-03-06T03:56:30.616Z,1006.54
2019-03-06T03:57:40.334Z,1006.51
2019-03-06T03:58:50.330Z,1006.49
2019-03-06T04:00:00.051Z,1006.41
2019-03-06T04:01:10.020Z,1006.39
2019-03-06T04:02:19.759Z,1006.4
2019-03-06T04:03:29.214Z,1006.43
2019-03-06T04:04:39.190Z,1006.4
2019-03-06T04:05:48.934Z,1006.42
2019-03-06T04:06:58.918Z,1006.42
2019-03-06T04:08:08.927Z,1006.44
2019-03-06T04:09:18.703Z,1006.41
2019-03-06T04:10:28.966Z,1006.41
2019-03-06T04:11:39.310Z,1006.35
2019-03-06T04:12:49.669Z,1006.4
2019-03-06T04:13:59.915Z,1006.43
2019-03-06T04:15:10.290Z,1006.42
2019-03-06T04:16:20.472Z,1006.39
2019-03-06T04:17:30.461Z,1006.42
2019-03-06T04:18:40.187Z,1006.43
2019-03-06T04:19:49.935Z,1006.5
2019-03-06T04:20:59.639Z,1006.49
2019-03-06T04:22:09.625Z,1006.42
2019-03-06T04:23:19.377Z,1006.41
2019-03-06T04:24:29.103Z,1006.49
2019-03-06T04:25:39.071Z,1006.46
2019-03-06T04:26:49.328Z,1006.52
2019-03-06T04:27:59.056Z,1006.49
2019-03-06T04:29:09.030Z,1006.52
2019-03-06T04:30:18.759Z,1006.49
2019-03-06T04:31:28.500Z,1006.47
2019-03-06T04:32:38.475Z,1006.49
2019-03-06T04:33:48.486Z,1006.49
2019-03-06T04:34:58.457Z,1006.48
2019-03-06T04:36:08.511Z,1006.46
2019-03-06T04:37:18.518Z,1006.46
2019-03-06T04:38:28.469Z,1006.49
2019-03-06T04:39:38.434Z,1006.48
2019-03-06T04:40:47.884Z,1006.47
2019-03-06T04:41:57.840Z,1006.42
2019-03-06T04:43:07.812Z,1006.43
2019-03-06T04:44:17.779Z,1006.45
2019-03-06T04:45:26.975Z,1006.42
2019-03-06T04:46:36.947Z,1006.42
2019-03-06T04:47:46.655Z,1006.41
2019-03-06T04:48:56.373Z,1006.43
2019-03-06T04:50:06.750Z,1006.45
2019-03-06T04:51:17.394Z,1006.48
2019-03-06T04:52:27.886Z,1006.52
2019-03-06T04:53:38.330Z,1006.54
2019-03-06T04:54:48.486Z,1006.49
2019-03-06T04:55:57.943Z,1006.55
2019-03-06T04:57:07.408Z,1006.53
2019-03-06T04:58:17.113Z,1006.55
2019-03-06T04:59:29.108Z,1006.59
2019-03-06T05:00:38.842Z,1006.58
2019-03-06T05:01:48.571Z,1006.6
2019-03-06T05:02:58.530Z,1006.51
2019-03-06T05:04:08.492Z,1006.54
2019-03-06T05:05:18.442Z,1006.54
2019-03-06T05:06:28.406Z,1006.56
2019-03-06T05:07:38.121Z,1006.58
2019-03-06T05:08:47.596Z,1006.53
2019-03-06T05:09:57.307Z,1006.47
2019-03-06T05:11:07.263Z,1006.44
2019-03-06T05:12:16.724Z,1006.5
2019-03-06T05:13:26.436Z,1006.52
2019-03-06T05:14:36.157Z,1006.5
2019-03-06T05:15:46.115Z,1006.43
2019-03-06T05:16:55.840Z,1006.51
2019-03-06T05:18:05.553Z,1006.46
2019-03-06T05:19:15.002Z,1006.51
2019-03-06T05:20:24.948Z,1006.48
2019-03-06T05:21:34.634Z,1006.52
2019-03-06T05:22:44.367Z,1006.55
2019-03-06T05:23:54.350Z,1006.6
2019-03-06T05:25:04.308Z,1006.52
2019-03-06T05:26:14.428Z,1006.58
2019-03-06T05:27:24.319Z,1006.57
2019-03-06T05:28:34.743Z,1006.58
2019-03-06T05:29:45.110Z,1006.56
2019-03-06T05:30:55.555Z,1006.58
2019-03-06T05:32:05.957Z,1006.63
2019-03-06T05:33:16.014Z,1006.6
2019-03-06T05:34:25.747Z,1006.62
2019-03-06T05:35:35.454Z,1006.57
2019-03-06T05:36:45.432Z,1006.62
2019-03-06T05:37:55.395Z,1006.59
2019-03-06T05:39:05.358Z,1006.59
2019-03-06T05:40:15.069Z,1006.61
2019-03-06T05:41:24.532Z,1006.54
2019-03-06T05:42:34.230Z,1006.55
2019-03-06T05:43:44.184Z,1006.62
2019-03-06T05:44:54.149Z,1006.6
2019-03-06T05:46:04.115Z,1006.56
2019-03-06T05:47:14.064Z,1006.54
2019-03-06T05:48:23.781Z,1006.57
2019-03-06T05:49:33.254Z,1006.59
2019-03-06T05:50:42.461Z,1006.57
2019-03-06T05:51:52.436Z,1006.64
2019-03-06T05:53:02.162Z,1006.67
2019-03-06T05:54:12.136Z,1006.62
2019-03-06T05:55:21.861Z,1006.65
2019-03-06T05:56:31.813Z,1006.67
2019-03-06T05:57:41.789Z,1006.62
2019-03-06T05:58:51.499Z,1006.61
2019-03-06T06:00:01.461Z,1006.67
2019-03-06T06:01:11.730Z,1006.67
2019-03-06T06:02:22.017Z,1006.69
2019-03-06T06:03:33.439Z,1006.69
2019-03-06T06:04:43.522Z,1006.69
2019-03-06T06:05:53.439Z,1006.65
2019-03-06T06:07:03.383Z,1006.67
2019-03-06T06:08:13.339Z,1006.67
2019-03-06T06:09:23.048Z,1006.67
2019-03-06T06:10:33.013Z,1006.63
2019-03-06T06:11:43.019Z,1006.64
2019-03-06T06:12:52.727Z,1006.64
2019-03-06T06:14:02.434Z,1006.64
2019-03-06T06:15:12.388Z,1006.67
2019-03-06T06:16:22.342Z,1006.65
2019-03-06T06:17:32.305Z,1006.68
2019-03-06T06:18:42.259Z,1006.64
2019-03-06T06:19:52.214Z,1006.6
2019-03-06T06:21:02.184Z,1006.59
2019-03-06T06:22:12.140Z,1006.6
2019-03-06T06:23:21.598Z,1006.63
2019-03-06T06:24:31.313Z,1006.64
2019-03-06T06:25:41.029Z,1006.62
2019-03-06T06:26:51.001Z,1006.67
2019-03-06T06:28:00.961Z,1006.59
2019-03-06T06:29:10.680Z,1006.6
2019-03-06T06:30:22.046Z,1006.62
2019-03-06T06:31:31.889Z,1006.61
2019-03-06T06:32:41.846Z,1006.62
2019-03-06T06:33:51.852Z,1006.59
2019-03-06T06:35:01.788Z,1006.53
2019-03-06T06:36:12.274Z,1006.51
2019-03-06T06:37:22.689Z,1006.53
2019-03-06T06:38:32.853Z,1006.52
2019-03-06T06:39:45.177Z,1006.55
2019-03-06T06:40:55.158Z,1006.57
2019-03-06T06:42:04.899Z,1006.6
2019-03-06T06:43:14.889Z,1006.61
2019-03-06T06:44:24.646Z,1006.59
2019-03-06T06:45:34.121Z,1006.64
2019-03-06T06:46:44.109Z,1006.61
2019-03-06T06:47:54.069Z,1006.66
2019-03-06T06:49:03.819Z,1006.66
2019-03-06T06:50:13.783Z,1006.63
2019-03-06T06:51:23.786Z,1006.63
2019-03-06T06:52:33.755Z,1006.63
2019-03-06T06:53:43.723Z,1006.6
2019-03-06T06:54:53.473Z,1006.62
2019-03-06T06:56:03.432Z,1006.61
2019-03-06T06:57:13.174Z,1006.62
2019-03-06T06:58:31.034Z,1006.59
2019-03-06T06:59:41.327Z,1006.63
2019-03-06T07:00:51.049Z,1006.57
2019-03-06T07:02:01.059Z,1006.59
2019-03-06T07:03:11.324Z,1006.54
2019-03-06T07:04:23.026Z,1006.62
2019-03-06T07:05:33.179Z,1006.55
2019-03-06T07:06:43.145Z,1006.57
2019-03-06T07:07:53.254Z,1006.47
2019-03-06T07:09:02.715Z,1006.5
2019-03-06T07:10:12.173Z,1006.59
2019-03-06T07:11:22.135Z,1006.5
2019-03-06T07:12:32.114Z,1006.57
2019-03-06T07:13:42.120Z,1006.55
2019-03-06T07:14:51.843Z,1006.58
2019-03-06T07:16:01.613Z,1006.54
2019-03-06T07:17:11.333Z,1006.53
2019-03-06T07:18:20.772Z,1006.49
2019-03-06T07:19:30.736Z,1006.51
2019-03-06T07:20:40.725Z,1006.59
2019-03-06T07:21:50.499Z,1006.56
2019-03-06T07:22:59.716Z,1006.56
2019-03-06T07:24:09.670Z,1006.48
2019-03-06T07:25:19.643Z,1006.55
2019-03-06T07:26:29.613Z,1006.59
2019-03-06T07:27:39.095Z,1006.5
2019-03-06T07:28:48.575Z,1006.5
2019-03-06T07:29:58.296Z,1006.5
2019-03-06T07:31:08.267Z,1006.47
2019-03-06T07:32:18.251Z,1006.47
2019-03-06T07:33:27.987Z,1006.48
2019-03-06T07:34:37.973Z,1006.45
2019-03-06T07:35:47.992Z,1006.46
2019-03-06T07:36:58.552Z,1006.49
2019-03-06T07:38:08.733Z,1006.47
2019-03-06T07:39:19.179Z,1006.49
2019-03-06T07:40:29.244Z,1006.5
2019-03-06T07:41:39.237Z,1006.52
2019-03-06T07:42:48.744Z,1006.54
2019-03-06T07:43:58.736Z,1006.55
2019-03-06T07:45:08.465Z,1006.54
2019-03-06T07:46:18.186Z,1006.58
2019-03-06T07:47:28.179Z,1006.54
2019-03-06T07:48:37.926Z,1006.56
2019-03-06T07:49:47.943Z,1006.53
2019-03-06T07:50:57.683Z,1006.54
2019-03-06T07:52:07.651Z,1006.58
2019-03-06T07:53:17.370Z,1006.61
2019-03-06T07:54:27.409Z,1006.61
2019-03-06T07:55:37.375Z,1006.63
2019-03-06T07:56:47.369Z,1006.68
2019-03-06T07:57:56.854Z,1006.7
2019-03-06T07:59:06.829Z,1006.67
2019-03-06T08:00:16.594Z,1006.67
2019-03-06T08:01:26.631Z,1006.69
2019-03-06T08:02:36.389Z,1006.67
2019-03-06T08:03:46.402Z,1006.68
2019-03-06T08:04:56.591Z,1006.73
2019-03-06T08:06:07.049Z,1006.59
2019-03-06T08:07:17.374Z,1006.57
2019-03-06T08:08:27.890Z,1006.55
2019-03-06T08:09:38.284Z,1006.54
2019-03-06T08:10:48.386Z,1006.54
2019-03-06T08:11:58.395Z,1006.49
2019-03-06T08:13:08.460Z,1006.55
2019-03-06T08:14:22.162Z,1006.58
2019-03-06T08:15:32.380Z,1006.55
2019-03-06T08:16:42.338Z,1006.55
2019-03-06T08:17:52.322Z,1006.55
2019-03-06T08:19:02.286Z,1006.51
2019-03-06T08:20:12.402Z,1006.57
2019-03-06T08:21:22.370Z,1006.54
2019-03-06T08:22:32.107Z,1006.51
2019-03-06T08:23:42.088Z,1006.54
2019-03-06T08:24:51.822Z,1006.53
2019-03-06T08:26:01.793Z,1006.47
2019-03-06T08:27:11.547Z,1006.47
2019-03-06T08:28:21.568Z,1006.42
2019-03-06T08:29:31.535Z,1006.39
2019-03-06T08:30:43.271Z,1006.38
2019-03-06T08:31:53.376Z,1006.52
2019-03-06T08:33:03.179Z,1006.39
2019-03-06T08:34:21.025Z,1006.32
2019-03-06T08:35:31.232Z,1006.34
2019-03-06T08:36:41.201Z,1006.32
2019-03-06T08:37:50.933Z,1006.31
2019-03-06T08:39:00.393Z,1006.28
2019-03-06T08:40:10.352Z,1006.32
2019-03-06T08:41:20.324Z,1006.3
2019-03-06T08:42:30.036Z,1006.27
2019-03-06T08:43:40.308Z,1006.3
2019-03-06T08:44:50.295Z,1006.28
2019-03-06T08:46:00.022Z,1006.26
2019-03-06T08:47:09.998Z,1006.27
2019-03-06T08:48:19.970Z,1006.23
2019-03-06T08:49:29.960Z,1006.29
2019-03-06T08:50:39.680Z,1006.17
2019-03-06T08:51:49.669Z,1006.22
2019-03-06T08:52:59.640Z,1006.23
2019-03-06T08:54:09.358Z,1006.2
2019-03-06T08:55:19.314Z,1006.15
2019-03-06T08:56:29.305Z,1006.16
2019-03-06T08:57:39.014Z,1006.17
2019-03-06T08:58:48.516Z,1006.11
2019-03-06T08:59:58.522Z,1006.1
2019-03-06T09:01:08.564Z,1006.14
2019-03-06T09:02:18.317Z,1006.07
2019-03-06T09:03:28.074Z,1006.07
2019-03-06T09:04:38.460Z,1006.05
2019-03-06T09:05:48.685Z,1006.05
2019-03-06T09:06:58.914Z,1006.1
2019-03-06T09:08:09.252Z,1006.09
2019-03-06T09:09:19.215Z,1006.06
2019-03-06T09:10:28.963Z,1006.04
2019-03-06T09:11:39.552Z,1005.95
2019-03-06T09:12:49.607Z,1006.03
2019-03-06T09:13:59.785Z,1006.03
2019-03-06T09:15:09.797Z,1006.02
2019-03-06T09:16:19.289Z,1005.97
2019-03-06T09:17:29.277Z,1006.01
2019-03-06T09:18:39.008Z,1005.99
2019-03-06T09:19:48.741Z,1005.95
2019-03-06T09:20:58.225Z,1005.93
2019-03-06T09:22:08.231Z,1005.9
2019-03-06T09:23:22.960Z,1005.89
2019-03-06T09:24:33.444Z,1005.78
2019-03-06T09:25:43.709Z,1005.83
2019-03-06T09:26:53.693Z,1005.79
2019-03-06T09:28:04.989Z,1005.78
2019-03-06T09:29:14.726Z,1005.77
2019-03-06T09:30:24.499Z,1005.72
2019-03-06T09:31:34.682Z,1005.7
2019-03-06T09:32:44.913Z,1005.7
2019-03-06T09:33:55.120Z,1005.65
2019-03-06T09:35:05.611Z,1005.69
2019-03-06T09:36:16.116Z,1005.67
2019-03-06T09:37:26.492Z,1005.66
2019-03-06T09:38:36.464Z,1005.68
2019-03-06T09:39:46.475Z,1005.66
2019-03-06T09:40:56.193Z,1005.6
2019-03-06T09:42:06.219Z,1005.56
2019-03-06T09:43:16.182Z,1005.63
2019-03-06T09:44:25.919Z,1005.49
2019-03-06T09:45:35.693Z,1005.5
2019-03-06T09:46:45.682Z,1005.51
2019-03-06T09:47:55.644Z,1005.5
2019-03-06T09:49:11.406Z,1005.45
2019-03-06T09:50:21.521Z,1005.38
2019-03-06T09:51:31.530Z,1005.46
2019-03-06T09:52:41.249Z,1005.39
2019-03-06T09:53:50.987Z,1005.42
2019-03-06T09:55:00.979Z,1005.39
2019-03-06T09:56:10.973Z,1005.37
2019-03-06T09:57:20.753Z,1005.29
2019-03-06T09:58:30.741Z,1005.32
2019-03-06T09:59:40.759Z,1005.36
2019-03-06T10:00:50.498Z,1005.49
2019-03-06T10:02:06.450Z,1005.26
2019-03-06T10:03:17.176Z,1005.33
2019-03-06T10:04:27.654Z,1005.32
2019-03-06T10:05:37.919Z,1005.26
2019-03-06T10:06:47.898Z,1005.36
2019-03-06T10:07:57.875Z,1005.32
2019-03-06T10:09:07.848Z,1005.21
2019-03-06T10:10:17.822Z,1005.31
2019-03-06T10:11:27.805Z,1005.22
2019-03-06T10:12:37.540Z,1005.4
2019-03-06T10:13:54.940Z,1005.26
2019-03-06T10:15:04.913Z,1005.19
2019-03-06T10:16:14.671Z,1005.24
2019-03-06T10:17:26.227Z,1005.32
2019-03-06T10:18:37.939Z,1005.27
2019-03-06T10:19:47.955Z,1005.16
2019-03-06T10:20:57.724Z,1005.14
2019-03-06T10:22:07.476Z,1005.19
2019-03-06T10:23:16.947Z,1005.15
2019-03-06T10:24:26.711Z,1005.12
2019-03-06T10:25:36.493Z,1005.11
2019-03-06T10:26:46.566Z,1005.14
2019-03-06T10:28:05.897Z,1005.05
2019-03-06T10:29:16.158Z,1005.21
2019-03-06T10:30:25.979Z,1005.07
2019-03-06T10:31:36.106Z,1005.14
2019-03-06T10:32:46.401Z,1005.27
2019-03-06T10:33:56.448Z,1005.08
2019-03-06T10:35:06.558Z,1005.03
2019-03-06T10:36:16.411Z,1005.02
2019-03-06T10:37:26.501Z,1004.94
2019-03-06T10:38:36.369Z,1005.08
2019-03-06T10:39:46.929Z,1004.93
2019-03-06T10:40:57.066Z,1004.97
2019-03-06T10:42:06.685Z,1004.98
2019-03-06T10:43:17.080Z,1004.97
2019-03-06T10:44:29.820Z,1004.88
2019-03-06T10:45:41.696Z,1004.92
2019-03-06T10:46:52.142Z,1004.87
2019-03-06T10:48:02.614Z,1004.89
2019-03-06T10:49:12.478Z,1004.86
2019-03-06T10:50:26.465Z,1004.81
2019-03-06T10:53:41.215Z,1004.72
2019-03-06T10:54:53.070Z,1004.84
2019-03-06T10:56:05.420Z,1004.93
2019-03-06T10:57:15.325Z,1004.79
2019-03-06T10:58:25.489Z,1004.78
2019-03-06T10:59:35.562Z,1004.75
2019-03-06T11:00:45.745Z,1004.75
2019-03-06T11:01:55.871Z,1004.77
2019-03-06T11:03:07.036Z,1004.73
2019-03-06T11:04:16.884Z,1004.77
2019-03-06T11:05:26.715Z,1004.66
2019-03-06T11:06:37.125Z,1004.69
2019-03-06T11:07:47.233Z,1004.66
2019-03-06T11:08:57.323Z,1004.53
2019-03-06T11:10:07.456Z,1004.49
2019-03-06T11:11:27.453Z,1004.51
2019-03-06T11:12:37.605Z,1004.53
2019-03-06T11:13:47.702Z,1004.54
2019-03-06T11:15:06.430Z,1004.59
2019-03-06T11:23:54.133Z,1004.43
2019-03-06T11:25:03.913Z,1004.47
2019-03-06T11:26:13.960Z,1004.37
2019-03-06T11:27:24.018Z,1004.35
2019-03-06T11:28:34.070Z,1004.22
2019-03-06T11:29:43.621Z,1004.38
2019-03-06T11:30:53.182Z,1004.35
2019-03-06T11:32:03.434Z,1004.41
2019-03-06T11:33:13.457Z,1004.54
2019-03-06T11:34:23.713Z,1004.11
2019-03-06T11:35:34.220Z,1004.22
2019-03-06T11:36:44.189Z,1004.28
2019-03-06T11:37:54.725Z,1004.19
2019-03-06T11:39:05.018Z,1004.15
2019-03-06T11:40:15.667Z,1004.18
2019-03-06T11:41:26.349Z,1004.21
2019-03-06T11:42:36.599Z,1004.07
2019-03-06T11:43:46.591Z,1004.1
2019-03-06T11:44:56.803Z,1004.09
2019-03-06T11:46:06.945Z,1004.09
2019-03-06T11:47:16.715Z,1004.09
2019-03-06T11:48:26.735Z,1004.15
2019-03-06T11:49:36.525Z,1004.16
2019-03-06T11:50:46.559Z,1004.22
2019-03-06T11:51:56.076Z,1004.07
2019-03-06T11:53:06.098Z,1004.2
2019-03-06T11:54:15.899Z,1004.13
2019-03-06T11:55:25.949Z,1004.11
2019-03-06T11:56:35.968Z,1004.05
2019-03-06T11:57:45.825Z,1004.01
2019-03-06T11:58:55.653Z,1004.17
2019-03-06T12:00:05.697Z,1003.99
2019-03-06T12:01:15.842Z,1003.89
2019-03-06T12:02:25.660Z,1003.98
2019-03-06T12:03:35.763Z,1003.82
2019-03-06T12:04:45.566Z,1003.81
2019-03-06T12:05:55.620Z,1003.77
2019-03-06T12:07:05.661Z,1003.78
2019-03-06T12:08:15.458Z,1003.72
2019-03-06T12:09:25.538Z,1003.72
2019-03-06T12:10:35.633Z,1003.61
2019-03-06T12:11:45.476Z,1003.62
2019-03-06T12:12:55.502Z,1003.71
2019-03-06T12:14:05.521Z,1003.65
2019-03-06T12:15:15.551Z,1003.43
2019-03-06T12:16:25.589Z,1003.83
2019-03-06T12:17:44.160Z,1003.62
2019-03-06T12:18:53.958Z,1003.53
2019-03-06T12:20:07.979Z,1003.55
2019-03-06T12:21:18.256Z,1003.52
2019-03-06T12:22:28.319Z,1003.6
2019-03-06T12:23:38.132Z,1003.51
2019-03-06T12:24:48.266Z,1003.41
2019-03-06T12:25:58.058Z,1003.3
2019-03-06T12:27:07.827Z,1003.35
2019-03-06T12:28:17.814Z,1003.37
2019-03-06T12:29:27.967Z,1003.37
2019-03-06T12:30:37.728Z,1003.3
2019-03-06T12:31:47.979Z,1003.36
2019-03-06T12:32:58.139Z,1003.32
2019-03-06T12:34:08.579Z,1003.24
2019-03-06T12:35:19.035Z,1003.37
2019-03-06T12:36:29.089Z,1003.31
2019-03-06T12:37:46.825Z,1003.3
2019-03-06T12:38:56.983Z,1003.2
2019-03-06T12:40:12.096Z,1003.26
2019-03-06T12:41:23.005Z,1003.13
2019-03-06T12:42:32.761Z,1003.1
2019-03-06T12:43:44.639Z,1003.13
2019-03-06T12:44:54.817Z,1003.2
2019-03-06T12:46:04.840Z,1003.04
2019-03-06T12:47:23.331Z,1003
2019-03-06T12:48:33.347Z,1003.09
2019-03-06T12:49:42.858Z,1002.96
2019-03-06T12:50:55.401Z,1002.9
2019-03-06T12:52:07.319Z,1003.05
2019-03-06T12:53:17.335Z,1002.92
2019-03-06T12:54:27.354Z,1002.88
2019-03-06T12:55:37.132Z,1002.81
2019-03-06T12:56:46.885Z,1002.95
2019-03-06T12:57:59.490Z,1002.75
2019-03-06T12:59:10.221Z,1002.9
2019-03-06T13:00:20.647Z,1002.72
2019-03-06T13:01:31.223Z,1002.82
2019-03-06T13:02:42.192Z,1002.66
2019-03-06T13:03:52.486Z,1002.65
2019-03-06T13:05:02.483Z,1002.69
2019-03-06T13:06:12.646Z,1002.61
2019-03-06T13:07:31.852Z,1002.48
2019-03-06T13:08:49.762Z,1002.45
2019-03-06T13:10:01.780Z,1002.48
2019-03-06T13:11:11.820Z,1002.5
2019-03-06T13:12:21.611Z,1002.5
2019-03-06T13:13:35.376Z,1002.52
2019-03-06T13:14:45.541Z,1002.63
2019-03-06T13:15:55.164Z,1002.44
2019-03-06T13:17:05.210Z,1002.35
2019-03-06T13:18:15.270Z,1002.33
2019-03-06T13:19:25.332Z,1002.41
2019-03-06T13:20:35.144Z,1002.24
2019-03-06T13:21:45.170Z,1002.32
2019-03-06T13:22:55.256Z,1002.23
2019-03-06T13:24:06.924Z,1002.31
2019-03-06T13:25:16.694Z,1002.23
2019-03-06T13:26:26.476Z,1002.17
2019-03-06T13:27:36.783Z,1002.14
2019-03-06T13:28:57.569Z,1002.12
2019-03-06T13:30:08.089Z,1002.14
2019-03-06T13:31:18.873Z,1002.06
2019-03-06T13:32:29.475Z,1002.02
2019-03-06T13:33:39.984Z,1001.97
2019-03-06T13:34:51.522Z,1001.9
2019-03-06T13:36:02.532Z,1001.87
2019-03-06T13:37:12.913Z,1001.97
2019-03-06T13:38:22.711Z,1001.9
2019-03-06T13:39:32.502Z,1001.81
2019-03-06T13:40:42.538Z,1001.71
2019-03-06T13:41:52.591Z,1001.78
2019-03-06T13:43:02.672Z,1001.57
2019-03-06T13:44:12.486Z,1001.51
2019-03-06T13:45:24.102Z,1001.57
2019-03-06T13:46:33.889Z,1001.62
2019-03-06T13:47:43.948Z,1001.59
2019-03-06T13:48:56.221Z,1001.52
2019-03-06T13:50:06.252Z,1001.45
2019-03-06T13:51:16.767Z,1001.5
2019-03-06T13:52:26.850Z,1001.48
2019-03-06T13:53:36.886Z,1001.45
2019-03-06T13:54:46.411Z,1001.55
2019-03-06T13:55:56.840Z,1001.7
2019-03-06T13:57:06.874Z,1001.6
2019-03-06T13:58:16.648Z,1001.51
2019-03-06T13:59:26.184Z,1001.49
2019-03-06T14:00:36.210Z,1001.44
2019-03-06T14:01:45.996Z,1001.47
2019-03-06T14:02:56.049Z,1001.51
2019-03-06T14:04:06.093Z,1001.4
2019-03-06T14:05:15.891Z,1001.4
2019-03-06T14:06:25.938Z,1001.34
2019-03-06T14:07:35.963Z,1001.4
2019-03-06T14:08:46.010Z,1001.24
2019-03-06T14:09:55.786Z,1001.42
2019-03-06T14:11:05.866Z,1001.42
2019-03-06T14:12:15.898Z,1001.23
2019-03-06T14:13:25.989Z,1001.31
2019-03-06T14:14:35.775Z,1001.22
2019-03-06T14:15:53.540Z,1001.16
2019-03-06T14:17:03.982Z,1001.39
2019-03-06T14:18:14.113Z,1001.32
2019-03-06T14:19:24.400Z,1001.12
2019-03-06T14:20:35.697Z,1001.28
2019-03-06T14:21:46.227Z,1001.15
2019-03-06T14:22:56.494Z,1001.18